Time;durP1;ratioP1;P1;durP2;ratioP2;P2;SDS_P1;SDS_P2;PMS_P1;PMS_P2;Temp;Humidity;BMP_temperature;BMP_pressure;BME280_temperature;BME280_humidity;BME280_pressure;Samples;Min_cycle;Max_cycle;Signal;HPM_P1;HPM_P2
2023/05/23 05:07:18;;;;;;;10.60;4.00;;;;;;;20.38;52.12;97787.86;103102;1295;600772;-83
2023/05/23 05:09:47;;;;;;;7.80;4.80;;;;;;;20.36;50.93;97789.72;105292;1268;59203;-85
2023/05/23 05:12:16;;;;;;;10.70;4.30;;;;;;;20.33;49.99;97787.19;105232;1267;60257;-83
2023/05/23 05:14:44;;;;;;;7.70;4.70;;;;;;;20.29;49.35;97783.11;105945;1261;73877;-83
2023/05/23 05:17:14;;;;;;;7.60;5.20;;;;;;;20.26;48.66;97784.80;105808;1265;70143;-84
2023/05/23 05:20:07;;;;;;;6.00;4.00;;;;;;;20.20;48.56;97786.64;105811;1260;203577;-88
2023/05/23 05:22:39;;;;;;;9.30;4.60;;;;;;;20.15;48.36;97789.07;105983;1257;62193;-85
2023/05/23 05:25:09;;;;;;;12.50;5.10;;;;;;;20.11;48.28;97787.05;105982;1257;59255;-86
2023/05/23 05:27:38;;;;;;;10.30;5.00;;;;;;;20.07;48.05;97783.55;105854;1257;72158;-81
2023/05/23 05:30:10;;;;;;;9.50;5.10;;;;;;;20.03;47.88;97783.14;105871;1257;69683;-85
2023/05/23 05:32:56;;;;;;;5.60;4.40;;;;;;;19.98;47.56;97786.03;106207;1254;72635;-82
2023/05/23 05:35:25;;;;;;;9.90;4.90;;;;;;;19.94;47.40;97783.98;106035;1254;59706;-87
2023/05/23 05:37:53;;;;;;;9.00;5.40;;;;;;;19.92;47.62;97783.73;106567;1254;59890;-85
2023/05/23 05:40:22;;;;;;;7.20;5.10;;;;;;;19.89;47.65;97781.66;107017;1259;72365;-83
2023/05/23 05:42:50;;;;;;;10.20;5.70;;;;;;;19.87;47.61;97775.96;106482;1257;66230;-86
2023/05/23 05:45:21;;;;;;;8.80;5.30;;;;;;;19.84;47.54;97772.54;106419;1259;71495;-88
2023/05/23 05:47:50;;;;;;;12.00;5.60;;;;;;;19.83;47.72;97773.77;106532;1257;60175;-85
2023/05/23 05:50:20;;;;;;;9.00;5.40;;;;;;;19.83;47.83;97775.45;106357;1260;59560;-84
2023/05/23 05:52:49;;;;;;;9.70;5.80;;;;;;;19.82;47.85;97773.34;106207;1254;71510;-84
2023/05/23 05:55:17;;;;;;;11.10;6.00;;;;;;;19.81;47.85;97771.42;106366;1252;66797;-84
2023/05/23 05:57:50;;;;;;;12.30;6.70;;;;;;;19.80;47.62;97774.46;106516;1257;70144;-84
2023/05/23 06:00:19;;;;;;;9.40;5.80;;;;;;;19.79;47.53;97771.89;106399;1259;60149;-86
2023/05/23 06:03:01;;;;;;;7.30;5.80;;;;;;;19.79;47.44;97771.89;106674;1256;62368;-86
2023/05/23 06:05:45;;;;;;;8.40;5.60;;;;;;;19.79;47.33;97774.86;106344;1254;73137;-83
2023/05/23 06:08:14;;;;;;;7.30;5.40;;;;;;;19.80;47.16;97772.73;106418;1257;68607;-83
2023/05/23 06:10:43;;;;;;;9.10;6.80;;;;;;;19.80;47.24;97773.28;106406;1259;71150;-88
2023/05/23 06:13:13;;;;;;;8.20;5.40;;;;;;;19.82;47.15;97775.58;106533;1257;60244;-83
2023/05/23 06:15:43;;;;;;;8.90;5.10;;;;;;;19.82;47.18;97774.42;106368;1258;60774;-83
2023/05/23 06:18:11;;;;;;;12.00;5.30;;;;;;;19.84;47.27;97774.59;106484;1254;72429;-85
2023/05/23 06:20:40;;;;;;;12.30;6.00;;;;;;;19.86;47.35;97775.50;106373;1254;68576;-86
2023/05/23 06:23:13;;;;;;;12.80;6.00;;;;;;;19.88;47.26;97775.48;106544;1259;71524;-87
2023/05/23 06:25:42;;;;;;;15.40;6.20;;;;;;;19.89;47.43;97775.55;106499;1253;60945;-86
2023/05/23 06:28:10;;;;;;;10.70;5.70;;;;;;;19.90;47.43;97772.45;106307;1259;59723;-89
2023/05/23 06:30:39;;;;;;;9.90;5.60;;;;;;;19.91;47.43;97773.95;106439;1260;73083;-91
2023/05/23 06:33:08;;;;;;;10.30;5.90;;;;;;;19.92;47.50;97773.34;106317;1259;69878;-94
2023/05/23 06:35:37;;;;;;;16.30;6.60;;;;;;;19.93;47.49;97774.83;106452;1259;72672;-87
2023/05/23 06:38:07;;;;;;;11.40;6.10;;;;;;;19.95;47.66;97775.39;106393;1254;60035;-88
2023/05/23 06:40:36;;;;;;;13.30;6.10;;;;;;;19.96;47.75;97772.73;106778;1253;59541;-88
2023/05/23 06:43:05;;;;;;;13.20;6.90;;;;;;;19.98;47.97;97771.17;106651;1254;72928;-86
2023/05/23 06:45:47;;;;;;;8.90;5.80;;;;;;;19.98;48.13;97773.84;106770;1254;68896;-83
2023/05/23 06:48:16;;;;;;;8.10;5.70;;;;;;;20.00;48.24;97770.52;106448;1259;73714;-84
2023/05/23 06:50:44;;;;;;;9.30;6.50;;;;;;;20.01;48.38;97767.38;106757;1254;61340;-85
2023/05/23 06:53:13;;;;;;;8.20;6.30;;;;;;;20.02;48.43;97767.02;106719;1254;59618;-87
2023/05/23 06:55:45;;;;;;;9.80;5.90;;;;;;;20.04;48.59;97765.38;106877;1256;71830;-84
2023/05/23 06:58:16;;;;;;;12.60;5.60;;;;;;;20.06;48.54;97766.01;106691;1254;68074;-84
2023/05/23 07:00:44;;;;;;;9.40;5.00;;;;;;;20.08;48.67;97763.62;106694;1253;72811;-85
2023/05/23 07:03:19;;;;;;;11.80;5.50;;;;;;;20.10;48.72;97762.31;106859;1259;59740;-82
2023/05/23 07:05:48;;;;;;;6.50;5.20;;;;;;;20.12;48.69;97755.84;106445;1259;60063;-80
2023/05/23 07:08:17;;;;;;;7.00;5.00;;;;;;;20.14;48.59;97756.37;106794;1256;72110;-82
2023/05/23 07:10:58;;;;;;;9.10;4.70;;;;;;;20.17;48.58;97754.73;106278;1257;68885;-81
2023/05/23 07:13:30;;;;;;;6.90;4.00;;;;;;;20.19;48.55;97752.13;106272;1251;72729;-81
2023/05/23 07:15:59;;;;;;;7.20;5.10;;;;;;;20.20;48.51;97750.65;106437;1257;60290;-81
2023/05/23 07:18:27;;;;;;;6.20;4.50;;;;;;;20.23;48.45;97750.91;106460;1257;61262;-82
2023/05/23 07:20:56;;;;;;;15.40;5.00;;;;;;;20.25;48.51;97747.45;106424;1259;74647;-83
2023/05/23 07:23:25;;;;;;;13.30;4.90;;;;;;;20.27;48.70;97744.16;106502;1257;68545;-82
2023/05/23 07:25:54;;;;;;;12.20;6.00;;;;;;;20.29;48.98;97745.85;106499;1254;71742;-83
2023/05/23 07:28:43;;;;;;;14.00;5.70;;;;;;;20.32;49.15;97746.52;106247;1259;59708;-81
2023/05/23 07:31:14;;;;;;;23.30;6.00;;;;;;;20.35;49.22;97744.40;106228;1257;61713;-82
2023/05/23 07:33:43;;;;;;;26.50;6.00;;;;;;;20.38;49.36;97742.55;106123;1256;73158;-81
2023/05/23 07:36:17;;;;;;;31.80;7.90;;;;;;;20.42;49.53;97742.14;106148;1261;69708;-86
2023/05/23 07:38:45;;;;;;;23.00;6.70;;;;;;;20.45;49.69;97745.42;106135;1254;71425;-85
2023/05/23 07:41:14;;;;;;;13.00;6.90;;;;;;;20.47;49.68;97743.08;106358;1257;59672;-84
2023/05/23 07:43:45;;;;;;;20.00;6.80;;;;;;;20.50;49.75;97742.58;106489;1261;60380;-86
2023/05/23 07:46:14;;;;;;;35.00;7.80;;;;;;;20.53;49.79;97739.86;106751;1259;73454;-85
2023/05/23 07:48:43;;;;;;;41.40;7.90;;;;;;;20.56;49.95;97745.44;107447;1253;69673;-83
2023/05/23 07:51:13;;;;;;;30.30;8.00;;;;;;;20.59;50.04;97743.68;108002;1254;70508;-84
2023/05/23 07:53:41;;;;;;;34.70;7.10;;;;;;;20.62;50.08;97742.20;107933;1254;59698;-85
2023/05/23 07:56:12;;;;;;;39.40;7.80;;;;;;;20.65;50.10;97735.48;108223;1260;59826;-88
2023/05/23 07:58:43;;;;;;;23.00;6.90;;;;;;;20.69;50.22;97734.91;108554;1254;73824;-92
2023/05/23 08:01:14;;;;;;;22.40;6.50;;;;;;;20.72;50.18;97734.54;108495;1254;69838;-93
2023/05/23 08:04:07;;;;;;;31.70;6.70;;;;;;;20.76;50.21;97736.57;108252;1260;73703;-91
2023/05/23 08:06:46;;;;;;;35.10;6.70;;;;;;;20.79;50.14;97735.15;108155;1254;59541;-91
2023/05/23 08:09:46;;;;;;;37.40;6.70;;;;;;;20.82;50.37;97734.90;108703;1255;62098;-93
2023/05/23 08:12:20;;;;;;;26.80;6.70;;;;;;;20.85;50.32;97734.59;108573;1253;73504;-94
